sensor_id;sensor_type;location;lat;lon;timestamp;P1;durP1;ratioP1;P2;durP2;ratioP2
21175;SDS011;10746;50.178;8.186;2023-05-23T00:01:23;40.65;;;24.30;;
21175;SDS011;10746;50.178;8.186;2023-05-23T00:03:50;43.15;;;23.95;;
21175;SDS011;10746;50.178;8.186;2023-05-23T00:06:19;42.58;;;25.08;;
21175;SDS011;10746;50.178;8.186;2023-05-23T00:08:46;47.08;;;24.88;;
21175;SDS011;10746;50.178;8.186;2023-05-23T00:11:13;44.50;;;24.48;;
21175;SDS011;10746;50.178;8.186;2023-05-23T00:13:41;45.70;;;25.80;;
21175;SDS011;10746;50.178;8.186;2023-05-23T00:16:08;47.85;;;27.23;;
21175;SDS011;10746;50.178;8.186;2023-05-23T00:18:35;46.88;;;27.42;;
21175;SDS011;10746;50.178;8.186;2023-05-23T00:21:01;49.22;;;28.30;;
21175;SDS011;10746;50.178;8.186;2023-05-23T00:23:28;56.80;;;29.48;;
21175;SDS011;10746;50.178;8.186;2023-05-23T00:25:57;50.70;;;28.90;;
21175;SDS011;10746;50.178;8.186;2023-05-23T00:28:24;53.58;;;29.17;;
21175;SDS011;10746;50.178;8.186;2023-05-23T00:30:52;50.55;;;29.58;;
21175;SDS011;10746;50.178;8.186;2023-05-23T00:33:19;52.05;;;30.52;;
21175;SDS011;10746;50.178;8.186;2023-05-23T00:35:46;51.83;;;32.33;;
21175;SDS011;10746;50.178;8.186;2023-05-23T00:38:13;50.20;;;30.75;;
21175;SDS011;10746;50.178;8.186;2023-05-23T00:40:39;55.15;;;32.53;;
21175;SDS011;10746;50.178;8.186;2023-05-23T00:43:06;52.40;;;29.38;;
21175;SDS011;10746;50.178;8.186;2023-05-23T00:45:33;50.13;;;29.05;;
21175;SDS011;10746;50.178;8.186;2023-05-23T00:48:01;48.60;;;29.20;;
21175;SDS011;10746;50.178;8.186;2023-05-23T00:50:29;48.33;;;28.52;;
21175;SDS011;10746;50.178;8.186;2023-05-23T00:52:57;47.28;;;28.55;;
21175;SDS011;10746;50.178;8.186;2023-05-23T00:55:25;45.30;;;28.08;;
21175;SDS011;10746;50.178;8.186;2023-05-23T00:57:53;47.20;;;28.13;;
21175;SDS011;10746;50.178;8.186;2023-05-23T01:00:21;47.78;;;28.58;;
21175;SDS011;10746;50.178;8.186;2023-05-23T01:02:49;42.42;;;26.10;;
21175;SDS011;10746;50.178;8.186;2023-05-23T01:05:18;44.75;;;27.58;;
21175;SDS011;10746;50.178;8.186;2023-05-23T01:07:46;40.22;;;25.88;;
21175;SDS011;10746;50.178;8.186;2023-05-23T01:10:14;41.13;;;25.58;;
21175;SDS011;10746;50.178;8.186;2023-05-23T01:12:45;41.53;;;24.42;;
21175;SDS011;10746;50.178;8.186;2023-05-23T01:15:22;40.90;;;23.30;;
21175;SDS011;10746;50.178;8.186;2023-05-23T01:17:54;38.20;;;24.10;;
21175;SDS011;10746;50.178;8.186;2023-05-23T01:20:30;38.05;;;23.70;;
21175;SDS011;10746;50.178;8.186;2023-05-23T01:26:02;33.47;;;20.77;;
21175;SDS011;10746;50.178;8.186;2023-05-23T01:28:42;33.78;;;21.17;;
21175;SDS011;10746;50.178;8.186;2023-05-23T01:31:12;35.05;;;20.40;;
21175;SDS011;10746;50.178;8.186;2023-05-23T01:33:41;35.50;;;19.88;;
21175;SDS011;10746;50.178;8.186;2023-05-23T01:36:11;31.38;;;19.48;;
21175;SDS011;10746;50.178;8.186;2023-05-23T01:38:39;32.92;;;19.27;;
21175;SDS011;10746;50.178;8.186;2023-05-23T01:41:06;33.58;;;20.02;;
21175;SDS011;10746;50.178;8.186;2023-05-23T01:43:32;30.42;;;19.35;;
21175;SDS011;10746;50.178;8.186;2023-05-23T01:46:01;31.02;;;19.52;;
21175;SDS011;10746;50.178;8.186;2023-05-23T01:48:29;33.58;;;18.42;;
21175;SDS011;10746;50.178;8.186;2023-05-23T01:50:57;36.53;;;19.13;;
21175;SDS011;10746;50.178;8.186;2023-05-23T01:53:24;32.40;;;18.70;;
21175;SDS011;10746;50.178;8.186;2023-05-23T01:55:51;35.78;;;19.95;;
21175;SDS011;10746;50.178;8.186;2023-05-23T01:58:18;32.90;;;20.20;;
21175;SDS011;10746;50.178;8.186;2023-05-23T02:00:45;34.38;;;18.25;;
21175;SDS011;10746;50.178;8.186;2023-05-23T02:03:13;31.60;;;18.73;;
21175;SDS011;10746;50.178;8.186;2023-05-23T02:05:39;34.97;;;19.95;;
21175;SDS011;10746;50.178;8.186;2023-05-23T02:08:06;37.88;;;20.08;;
21175;SDS011;10746;50.178;8.186;2023-05-23T02:10:33;35.50;;;20.00;;
21175;SDS011;10746;50.178;8.186;2023-05-23T02:12:59;37.78;;;21.05;;
21175;SDS011;10746;50.178;8.186;2023-05-23T02:15:26;33.65;;;19.25;;
21175;SDS011;10746;50.178;8.186;2023-05-23T02:17:53;36.30;;;18.75;;
21175;SDS011;10746;50.178;8.186;2023-05-23T02:20:21;36.17;;;18.98;;
21175;SDS011;10746;50.178;8.186;2023-05-23T02:22:47;30.33;;;18.17;;
21175;SDS011;10746;50.178;8.186;2023-05-23T02:25:14;38.55;;;19.05;;
21175;SDS011;10746;50.178;8.186;2023-05-23T02:27:41;35.42;;;18.95;;
21175;SDS011;10746;50.178;8.186;2023-05-23T02:30:08;37.45;;;20.50;;
21175;SDS011;10746;50.178;8.186;2023-05-23T02:32:35;35.58;;;19.15;;
21175;SDS011;10746;50.178;8.186;2023-05-23T02:35:02;36.97;;;20.00;;
21175;SDS011;10746;50.178;8.186;2023-05-23T02:37:31;37.95;;;21.05;;
21175;SDS011;10746;50.178;8.186;2023-05-23T02:39:58;37.17;;;20.63;;
21175;SDS011;10746;50.178;8.186;2023-05-23T02:42:25;43.83;;;21.58;;
21175;SDS011;10746;50.178;8.186;2023-05-23T02:44:52;38.28;;;21.23;;
21175;SDS011;10746;50.178;8.186;2023-05-23T02:47:18;42.38;;;22.88;;
21175;SDS011;10746;50.178;8.186;2023-05-23T02:49:45;39.08;;;21.27;;
21175;SDS011;10746;50.178;8.186;2023-05-23T02:52:12;39.35;;;21.75;;
21175;SDS011;10746;50.178;8.186;2023-05-23T02:54:40;41.22;;;21.95;;
21175;SDS011;10746;50.178;8.186;2023-05-23T02:57:07;44.90;;;23.85;;
21175;SDS011;10746;50.178;8.186;2023-05-23T02:59:34;47.17;;;24.63;;
21175;SDS011;10746;50.178;8.186;2023-05-23T03:02:01;44.28;;;23.70;;
21175;SDS011;10746;50.178;8.186;2023-05-23T03:04:27;49.33;;;25.13;;
21175;SDS011;10746;50.178;8.186;2023-05-23T03:06:54;48.65;;;25.25;;
21175;SDS011;10746;50.178;8.186;2023-05-23T03:09:23;47.40;;;25.45;;
21175;SDS011;10746;50.178;8.186;2023-05-23T03:11:51;53.50;;;26.08;;
21175;SDS011;10746;50.178;8.186;2023-05-23T03:14:18;50.53;;;25.67;;
21175;SDS011;10746;50.178;8.186;2023-05-23T03:16:44;50.10;;;26.48;;
21175;SDS011;10746;50.178;8.186;2023-05-23T03:19:11;53.83;;;26.67;;
21175;SDS011;10746;50.178;8.186;2023-05-23T03:21:38;48.25;;;25.52;;
21175;SDS011;10746;50.178;8.186;2023-05-23T03:24:05;51.20;;;26.00;;
21175;SDS011;10746;50.178;8.186;2023-05-23T03:26:32;52.63;;;27.02;;
21175;SDS011;10746;50.178;8.186;2023-05-23T03:29:00;50.78;;;25.58;;
21175;SDS011;10746;50.178;8.186;2023-05-23T03:31:26;50.60;;;24.95;;
21175;SDS011;10746;50.178;8.186;2023-05-23T03:33:53;47.08;;;25.20;;
21175;SDS011;10746;50.178;8.186;2023-05-23T03:36:20;46.25;;;24.10;;
21175;SDS011;10746;50.178;8.186;2023-05-23T03:38:49;40.78;;;22.33;;
21175;SDS011;10746;50.178;8.186;2023-05-23T03:41:17;47.00;;;23.30;;
21175;SDS011;10746;50.178;8.186;2023-05-23T03:43:43;43.40;;;23.17;;
21175;SDS011;10746;50.178;8.186;2023-05-23T03:46:11;43.83;;;22.17;;
21175;SDS011;10746;50.178;8.186;2023-05-23T03:48:38;40.22;;;22.45;;
21175;SDS011;10746;50.178;8.186;2023-05-23T03:51:05;44.15;;;23.65;;
21175;SDS011;10746;50.178;8.186;2023-05-23T03:53:31;40.05;;;21.95;;
21175;SDS011;10746;50.178;8.186;2023-05-23T03:55:58;37.83;;;21.80;;
21175;SDS011;10746;50.178;8.186;2023-05-23T03:58:25;45.47;;;23.83;;
21175;SDS011;10746;50.178;8.186;2023-05-23T04:00:51;44.80;;;23.77;;
21175;SDS011;10746;50.178;8.186;2023-05-23T04:03:20;35.10;;;20.27;;
21175;SDS011;10746;50.178;8.186;2023-05-23T04:05:46;36.88;;;20.77;;
21175;SDS011;10746;50.178;8.186;2023-05-23T04:08:13;34.28;;;18.90;;
21175;SDS011;10746;50.178;8.186;2023-05-23T04:10:40;28.23;;;17.80;;
21175;SDS011;10746;50.178;8.186;2023-05-23T04:13:07;27.33;;;16.90;;
21175;SDS011;10746;50.178;8.186;2023-05-23T04:15:33;31.42;;;17.65;;
21175;SDS011;10746;50.178;8.186;2023-05-23T04:18:00;30.50;;;17.30;;
21175;SDS011;10746;50.178;8.186;2023-05-23T04:20:28;32.20;;;16.88;;
21175;SDS011;10746;50.178;8.186;2023-05-23T04:22:55;28.23;;;16.92;;
21175;SDS011;10746;50.178;8.186;2023-05-23T04:25:22;26.67;;;16.00;;
21175;SDS011;10746;50.178;8.186;2023-05-23T04:27:49;26.17;;;15.30;;
21175;SDS011;10746;50.178;8.186;2023-05-23T04:30:15;29.52;;;15.77;;
21175;SDS011;10746;50.178;8.186;2023-05-23T04:32:43;22.80;;;15.02;;
21175;SDS011;10746;50.178;8.186;2023-05-23T04:35:10;22.55;;;15.13;;
21175;SDS011;10746;50.178;8.186;2023-05-23T04:37:38;27.00;;;16.15;;
21175;SDS011;10746;50.178;8.186;2023-05-23T04:40:06;25.52;;;16.08;;
21175;SDS011;10746;50.178;8.186;2023-05-23T04:42:34;26.70;;;15.45;;
21175;SDS011;10746;50.178;8.186;2023-05-23T04:45:01;25.23;;;15.45;;
21175;SDS011;10746;50.178;8.186;2023-05-23T04:47:27;23.38;;;15.05;;
21175;SDS011;10746;50.178;8.186;2023-05-23T04:49:58;25.88;;;15.52;;
21175;SDS011;10746;50.178;8.186;2023-05-23T04:52:26;24.10;;;13.95;;
21175;SDS011;10746;50.178;8.186;2023-05-23T04:54:55;22.60;;;14.90;;
21175;SDS011;10746;50.178;8.186;2023-05-23T04:57:21;19.65;;;13.23;;
21175;SDS011;10746;50.178;8.186;2023-05-23T04:59:48;21.92;;;13.68;;
21175;SDS011;10746;50.178;8.186;2023-05-23T05:02:15;21.73;;;13.90;;
21175;SDS011;10746;50.178;8.186;2023-05-23T05:04:41;20.17;;;12.93;;
21175;SDS011;10746;50.178;8.186;2023-05-23T05:07:08;20.95;;;13.45;;
21175;SDS011;10746;50.178;8.186;2023-05-23T05:09:35;17.70;;;11.75;;
21175;SDS011;10746;50.178;8.186;2023-05-23T05:12:03;19.42;;;13.30;;
21175;SDS011;10746;50.178;8.186;2023-05-23T05:14:30;22.58;;;12.95;;
21175;SDS011;10746;50.178;8.186;2023-05-23T05:16:57;20.52;;;13.07;;
21175;SDS011;10746;50.178;8.186;2023-05-23T05:19:23;21.75;;;13.40;;
21175;SDS011;10746;50.178;8.186;2023-05-23T05:21:50;20.67;;;13.45;;
21175;SDS011;10746;50.178;8.186;2023-05-23T05:24:17;23.05;;;13.05;;
21175;SDS011;10746;50.178;8.186;2023-05-23T05:26:44;22.90;;;14.65;;
21175;SDS011;10746;50.178;8.186;2023-05-23T05:29:13;20.63;;;14.18;;
21175;SDS011;10746;50.178;8.186;2023-05-23T05:31:40;22.27;;;14.23;;
21175;SDS011;10746;50.178;8.186;2023-05-23T05:34:07;22.58;;;14.85;;
21175;SDS011;10746;50.178;8.186;2023-05-23T05:36:34;23.02;;;13.70;;
21175;SDS011;10746;50.178;8.186;2023-05-23T05:39:00;22.10;;;14.48;;
21175;SDS011;10746;50.178;8.186;2023-05-23T05:41:27;21.20;;;13.52;;
21175;SDS011;10746;50.178;8.186;2023-05-23T05:43:54;19.77;;;13.32;;
21175;SDS011;10746;50.178;8.186;2023-05-23T05:46:22;21.55;;;12.82;;
21175;SDS011;10746;50.178;8.186;2023-05-23T05:48:49;21.30;;;12.60;;
21175;SDS011;10746;50.178;8.186;2023-05-23T05:51:15;16.98;;;12.07;;
21175;SDS011;10746;50.178;8.186;2023-05-23T05:53:42;18.52;;;12.50;;
21175;SDS011;10746;50.178;8.186;2023-05-23T05:56:09;16.38;;;12.10;;
21175;SDS011;10746;50.178;8.186;2023-05-23T05:58:35;18.58;;;11.95;;
21175;SDS011;10746;50.178;8.186;2023-05-23T06:01:02;17.92;;;12.43;;
21175;SDS011;10746;50.178;8.186;2023-05-23T06:03:31;17.38;;;12.65;;
21175;SDS011;10746;50.178;8.186;2023-05-23T06:05:57;19.55;;;12.20;;
21175;SDS011;10746;50.178;8.186;2023-05-23T06:08:24;15.70;;;11.98;;
21175;SDS011;10746;50.178;8.186;2023-05-23T06:10:51;17.48;;;12.32;;
21175;SDS011;10746;50.178;8.186;2023-05-23T06:13:18;16.98;;;11.35;;
21175;SDS011;10746;50.178;8.186;2023-05-23T06:15:44;16.45;;;11.27;;
21175;SDS011;10746;50.178;8.186;2023-05-23T06:18:11;16.67;;;10.60;;
21175;SDS011;10746;50.178;8.186;2023-05-23T06:20:39;19.30;;;10.75;;
21175;SDS011;10746;50.178;8.186;2023-05-23T06:23:06;16.20;;;10.60;;
21175;SDS011;10746;50.178;8.186;2023-05-23T06:25:33;14.85;;;10.40;;
21175;SDS011;10746;50.178;8.186;2023-05-23T06:27:59;14.70;;;10.35;;
21175;SDS011;10746;50.178;8.186;2023-05-23T06:30:26;12.98;;;10.13;;
21175;SDS011;10746;50.178;8.186;2023-05-23T06:32:53;14.80;;;9.60;;
21175;SDS011;10746;50.178;8.186;2023-05-23T06:35:20;13.32;;;9.90;;
21175;SDS011;10746;50.178;8.186;2023-05-23T06:37:48;12.00;;;9.65;;
21175;SDS011;10746;50.178;8.186;2023-05-23T06:40:15;13.07;;;9.18;;
21175;SDS011;10746;50.178;8.186;2023-05-23T06:42:41;13.55;;;9.23;;
21175;SDS011;10746;50.178;8.186;2023-05-23T06:45:08;12.88;;;8.90;;
21175;SDS011;10746;50.178;8.186;2023-05-23T06:47:35;9.80;;;8.05;;
21175;SDS011;10746;50.178;8.186;2023-05-23T06:50:02;14.15;;;9.02;;
21175;SDS011;10746;50.178;8.186;2023-05-23T06:52:29;12.02;;;8.23;;
21175;SDS011;10746;50.178;8.186;2023-05-23T06:54:57;12.18;;;8.40;;
21175;SDS011;10746;50.178;8.186;2023-05-23T06:57:24;12.48;;;9.30;;
21175;SDS011;10746;50.178;8.186;2023-05-23T06:59:51;10.10;;;7.80;;
21175;SDS011;10746;50.178;8.186;2023-05-23T07:02:18;12.25;;;8.25;;
21175;SDS011;10746;50.178;8.186;2023-05-23T07:04:44;11.20;;;7.72;;
21175;SDS011;10746;50.178;8.186;2023-05-23T07:07:11;12.95;;;8.10;;
21175;SDS011;10746;50.178;8.186;2023-05-23T07:09:38;11.35;;;7.40;;
21175;SDS011;10746;50.178;8.186;2023-05-23T07:12:06;8.57;;;7.55;;
21175;SDS011;10746;50.178;8.186;2023-05-23T07:14:33;12.32;;;7.35;;
21175;SDS011;10746;50.178;8.186;2023-05-23T07:17:02;8.65;;;7.07;;
21175;SDS011;10746;50.178;8.186;2023-05-23T07:19:29;10.20;;;7.30;;
21175;SDS011;10746;50.178;8.186;2023-05-23T07:21:56;8.88;;;6.75;;
21175;SDS011;10746;50.178;8.186;2023-05-23T07:24:23;10.65;;;7.60;;
21175;SDS011;10746;50.178;8.186;2023-05-23T07:26:50;9.82;;;7.57;;
21175;SDS011;10746;50.178;8.186;2023-05-23T07:29:18;13.95;;;8.02;;
21175;SDS011;10746;50.178;8.186;2023-05-23T07:31:44;10.73;;;7.63;;
21175;SDS011;10746;50.178;8.186;2023-05-23T07:34:11;13.48;;;8.77;;
21175;SDS011;10746;50.178;8.186;2023-05-23T07:36:38;12.00;;;8.43;;
21175;SDS011;10746;50.178;8.186;2023-05-23T07:39:06;13.77;;;8.20;;
21175;SDS011;10746;50.178;8.186;2023-05-23T07:41:33;12.73;;;8.27;;
21175;SDS011;10746;50.178;8.186;2023-05-23T07:44:00;11.00;;;8.32;;
21175;SDS011;10746;50.178;8.186;2023-05-23T07:46:28;10.75;;;8.32;;
21175;SDS011;10746;50.178;8.186;2023-05-23T07:48:54;10.55;;;7.72;;
21175;SDS011;10746;50.178;8.186;2023-05-23T07:51:21;10.30;;;7.43;;
21175;SDS011;10746;50.178;8.186;2023-05-23T07:53:48;9.57;;;7.60;;
21175;SDS011;10746;50.178;8.186;2023-05-23T07:56:14;9.30;;;7.85;;
21175;SDS011;10746;50.178;8.186;2023-05-23T07:58:41;9.73;;;8.00;;
21175;SDS011;10746;50.178;8.186;2023-05-23T08:01:08;12.30;;;7.50;;
21175;SDS011;10746;50.178;8.186;2023-05-23T08:03:36;9.88;;;7.63;;
21175;SDS011;10746;50.178;8.186;2023-05-23T08:06:03;9.13;;;7.53;;
21175;SDS011;10746;50.178;8.186;2023-05-23T08:08:31;10.02;;;6.70;;
21175;SDS011;10746;50.178;8.186;2023-05-23T08:10:58;9.63;;;7.63;;
21175;SDS011;10746;50.178;8.186;2023-05-23T08:13:24;8.75;;;7.40;;
21175;SDS011;10746;50.178;8.186;2023-05-23T08:15:51;7.80;;;7.00;;
21175;SDS011;10746;50.178;8.186;2023-05-23T08:18:18;8.20;;;7.05;;
21175;SDS011;10746;50.178;8.186;2023-05-23T08:20:46;8.55;;;6.53;;
21175;SDS011;10746;50.178;8.186;2023-05-23T08:23:12;9.07;;;6.22;;
21175;SDS011;10746;50.178;8.186;2023-05-23T08:25:39;8.52;;;6.43;;
21175;SDS011;10746;50.178;8.186;2023-05-23T08:28:06;9.00;;;6.10;;
21175;SDS011;10746;50.178;8.186;2023-05-23T08:30:32;7.45;;;5.60;;
21175;SDS011;10746;50.178;8.186;2023-05-23T08:32:59;7.30;;;5.85;;
21175;SDS011;10746;50.178;8.186;2023-05-23T08:35:28;9.98;;;5.60;;
21175;SDS011;10746;50.178;8.186;2023-05-23T08:38:00;6.22;;;5.40;;
21175;SDS011;10746;50.178;8.186;2023-05-23T08:40:27;6.65;;;5.80;;
21175;SDS011;10746;50.178;8.186;2023-05-23T08:42:56;7.15;;;6.28;;
21175;SDS011;10746;50.178;8.186;2023-05-23T08:45:23;9.82;;;5.90;;
21175;SDS011;10746;50.178;8.186;2023-05-23T08:47:50;9.63;;;6.60;;
21175;SDS011;10746;50.178;8.186;2023-05-23T08:50:17;9.07;;;6.38;;
21175;SDS011;10746;50.178;8.186;2023-05-23T08:52:46;7.97;;;6.95;;
21175;SDS011;10746;50.178;8.186;2023-05-23T08:55:17;11.15;;;7.20;;
21175;SDS011;10746;50.178;8.186;2023-05-23T08:57:44;11.05;;;7.63;;
21175;SDS011;10746;50.178;8.186;2023-05-23T09:00:12;15.13;;;7.95;;
21175;SDS011;10746;50.178;8.186;2023-05-23T09:02:41;11.40;;;7.50;;
21175;SDS011;10746;50.178;8.186;2023-05-23T09:05:08;9.75;;;7.82;;
21175;SDS011;10746;50.178;8.186;2023-05-23T09:07:36;11.35;;;8.27;;
21175;SDS011;10746;50.178;8.186;2023-05-23T09:10:03;12.88;;;7.72;;
21175;SDS011;10746;50.178;8.186;2023-05-23T09:12:33;9.15;;;7.32;;
21175;SDS011;10746;50.178;8.186;2023-05-23T09:15:01;11.32;;;8.18;;
21175;SDS011;10746;50.178;8.186;2023-05-23T09:17:27;10.80;;;8.27;;
21175;SDS011;10746;50.178;8.186;2023-05-23T09:19:56;12.75;;;8.38;;
21175;SDS011;10746;50.178;8.186;2023-05-23T09:22:22;15.57;;;8.80;;
21175;SDS011;10746;50.178;8.186;2023-05-23T09:24:50;15.82;;;9.57;;
21175;SDS011;10746;50.178;8.186;2023-05-23T09:27:17;13.98;;;9.40;;
21175;SDS011;10746;50.178;8.186;2023-05-23T09:29:45;12.85;;;9.30;;
21175;SDS011;10746;50.178;8.186;2023-05-23T09:32:14;13.45;;;9.55;;
21175;SDS011;10746;50.178;8.186;2023-05-23T09:34:41;14.45;;;9.70;;
21175;SDS011;10746;50.178;8.186;2023-05-23T09:37:20;12.70;;;9.25;;
21175;SDS011;10746;50.178;8.186;2023-05-23T09:39:48;15.93;;;9.60;;
21175;SDS011;10746;50.178;8.186;2023-05-23T09:42:19;13.35;;;9.52;;
21175;SDS011;10746;50.178;8.186;2023-05-23T09:44:48;12.40;;;9.05;;
21175;SDS011;10746;50.178;8.186;2023-05-23T09:47:15;12.85;;;9.85;;
21175;SDS011;10746;50.178;8.186;2023-05-23T09:49:42;14.45;;;9.70;;
21175;SDS011;10746;50.178;8.186;2023-05-23T09:52:09;15.02;;;10.13;;
21175;SDS011;10746;50.178;8.186;2023-05-23T09:54:36;16.83;;;10.82;;
21175;SDS011;10746;50.178;8.186;2023-05-23T09:57:03;17.88;;;10.68;;
21175;SDS011;10746;50.178;8.186;2023-05-23T09:59:35;19.30;;;10.68;;
21175;SDS011;10746;50.178;8.186;2023-05-23T10:02:06;17.90;;;11.10;;
21175;SDS011;10746;50.178;8.186;2023-05-23T10:04:37;16.42;;;9.88;;
21175;SDS011;10746;50.178;8.186;2023-05-23T10:07:06;16.52;;;10.60;;
21175;SDS011;10746;50.178;8.186;2023-05-23T10:09:39;15.05;;;10.38;;
21175;SDS011;10746;50.178;8.186;2023-05-23T10:15:07;17.55;;;9.90;;
21175;SDS011;10746;50.178;8.186;2023-05-23T10:17:41;18.40;;;10.90;;
21175;SDS011;10746;50.178;8.186;2023-05-23T10:20:19;16.02;;;10.52;;
21175;SDS011;10746;50.178;8.186;2023-05-23T10:22:50;16.88;;;10.05;;
21175;SDS011;10746;50.178;8.186;2023-05-23T10:25:17;14.80;;;9.52;;
21175;SDS011;10746;50.178;8.186;2023-05-23T10:27:44;13.75;;;8.82;;
21175;SDS011;10746;50.178;8.186;2023-05-23T10:30:14;16.50;;;9.77;;
21175;SDS011;10746;50.178;8.186;2023-05-23T10:32:42;13.77;;;9.27;;
21175;SDS011;10746;50.178;8.186;2023-05-23T10:35:13;15.50;;;9.40;;
21175;SDS011;10746;50.178;8.186;2023-05-23T10:37:47;11.93;;;8.38;;
21175;SDS011;10746;50.178;8.186;2023-05-23T10:40:27;13.10;;;8.90;;
21175;SDS011;10746;50.178;8.186;2023-05-23T10:43:04;11.68;;;8.13;;
21175;SDS011;10746;50.178;8.186;2023-05-23T10:45:38;12.18;;;8.50;;
21175;SDS011;10746;50.178;8.186;2023-05-23T10:48:18;15.02;;;9.02;;
21175;SDS011;10746;50.178;8.186;2023-05-23T10:50:47;12.75;;;9.18;;
21175;SDS011;10746;50.178;8.186;2023-05-23T10:53:28;15.35;;;10.30;;
21175;SDS011;10746;50.178;8.186;2023-05-23T10:55:56;15.50;;;10.45;;
21175;SDS011;10746;50.178;8.186;2023-05-23T10:58:23;14.07;;;9.88;;
21175;SDS011;10746;50.178;8.186;2023-05-23T11:00:50;12.88;;;9.48;;
21175;SDS011;10746;50.178;8.186;2023-05-23T11:03:20;14.20;;;10.15;;
21175;SDS011;10746;50.178;8.186;2023-05-23T11:05:57;15.90;;;10.07;;
21175;SDS011;10746;50.178;8.186;2023-05-23T11:08:24;13.82;;;9.55;;
21175;SDS011;10746;50.178;8.186;2023-05-23T11:10:52;14.95;;;8.95;;
21175;SDS011;10746;50.178;8.186;2023-05-23T11:13:20;13.77;;;9.38;;
21175;SDS011;10746;50.178;8.186;2023-05-23T11:15:47;14.32;;;8.90;;
21175;SDS011;10746;50.178;8.186;2023-05-23T11:18:22;14.32;;;9.60;;
21175;SDS011;10746;50.178;8.186;2023-05-23T11:20:52;13.15;;;9.00;;
21175;SDS011;10746;50.178;8.186;2023-05-23T11:23:19;13.15;;;9.10;;
21175;SDS011;10746;50.178;8.186;2023-05-23T11:25:47;12.63;;;8.68;;
21175;SDS011;10746;50.178;8.186;2023-05-23T11:28:16;12.30;;;8.35;;
21175;SDS011;10746;50.178;8.186;2023-05-23T11:30:43;12.95;;;7.72;;
21175;SDS011;10746;50.178;8.186;2023-05-23T11:33:13;12.45;;;7.78;;
21175;SDS011;10746;50.178;8.186;2023-05-23T11:35:42;10.02;;;7.32;;
21175;SDS011;10746;50.178;8.186;2023-05-23T11:38:10;10.27;;;7.20;;
21175;SDS011;10746;50.178;8.186;2023-05-23T11:40:39;10.52;;;6.75;;
21175;SDS011;10746;50.178;8.186;2023-05-23T11:43:07;11.63;;;8.20;;
21175;SDS011;10746;50.178;8.186;2023-05-23T11:45:36;11.60;;;6.75;;
21175;SDS011;10746;50.178;8.186;2023-05-23T11:48:04;8.65;;;6.80;;
21175;SDS011;10746;50.178;8.186;2023-05-23T11:50:31;10.65;;;6.72;;
21175;SDS011;10746;50.178;8.186;2023-05-23T11:53:00;9.82;;;6.28;;
21175;SDS011;10746;50.178;8.186;2023-05-23T11:55:27;10.35;;;6.53;;
21175;SDS011;10746;50.178;8.186;2023-05-23T11:57:54;8.60;;;6.68;;
21175;SDS011;10746;50.178;8.186;2023-05-23T12:00:22;10.98;;;6.20;;
21175;SDS011;10746;50.178;8.186;2023-05-23T12:02:49;10.32;;;5.78;;
21175;SDS011;10746;50.178;8.186;2023-05-23T12:05:15;10.35;;;6.22;;
21175;SDS011;10746;50.178;8.186;2023-05-23T12:07:43;8.10;;;6.40;;
21175;SDS011;10746;50.178;8.186;2023-05-23T12:10:12;8.38;;;5.50;;
21175;SDS011;10746;50.178;8.186;2023-05-23T12:12:41;9.98;;;5.75;;
21175;SDS011;10746;50.178;8.186;2023-05-23T12:15:08;8.65;;;5.35;;
21175;SDS011;10746;50.178;8.186;2023-05-23T12:17:36;14.40;;;5.82;;
21175;SDS011;10746;50.178;8.186;2023-05-23T12:20:03;11.07;;;6.93;;
21175;SDS011;10746;50.178;8.186;2023-05-23T12:22:31;9.02;;;5.78;;
21175;SDS011;10746;50.178;8.186;2023-05-23T12:24:58;11.38;;;6.60;;
21175;SDS011;10746;50.178;8.186;2023-05-23T12:27:27;12.45;;;6.28;;
21175;SDS011;10746;50.178;8.186;2023-05-23T12:30:05;13.93;;;6.15;;
21175;SDS011;10746;50.178;8.186;2023-05-23T12:32:33;13.90;;;6.70;;
21175;SDS011;10746;50.178;8.186;2023-05-23T12:35:00;11.82;;;6.90;;
21175;SDS011;10746;50.178;8.186;2023-05-23T12:37:29;9.35;;;6.45;;
21175;SDS011;10746;50.178;8.186;2023-05-23T12:39:55;9.82;;;6.90;;
21175;SDS011;10746;50.178;8.186;2023-05-23T12:42:22;11.20;;;6.10;;
21175;SDS011;10746;50.178;8.186;2023-05-23T12:44:52;9.65;;;5.78;;
21175;SDS011;10746;50.178;8.186;2023-05-23T12:47:19;11.90;;;6.72;;
21175;SDS011;10746;50.178;8.186;2023-05-23T12:49:45;9.68;;;6.15;;
21175;SDS011;10746;50.178;8.186;2023-05-23T12:52:12;8.45;;;5.93;;
21175;SDS011;10746;50.178;8.186;2023-05-23T12:54:39;11.40;;;5.78;;
21175;SDS011;10746;50.178;8.186;2023-05-23T12:57:06;13.43;;;6.88;;
21175;SDS011;10746;50.178;8.186;2023-05-23T12:59:32;10.73;;;6.63;;
21175;SDS011;10746;50.178;8.186;2023-05-23T13:02:00;12.40;;;6.40;;
21175;SDS011;10746;50.178;8.186;2023-05-23T13:04:27;12.20;;;6.50;;
21175;SDS011;10746;50.178;8.186;2023-05-23T13:06:54;15.65;;;7.15;;
21175;SDS011;10746;50.178;8.186;2023-05-23T13:09:21;10.73;;;6.78;;
21175;SDS011;10746;50.178;8.186;2023-05-23T13:11:48;10.35;;;7.03;;
21175;SDS011;10746;50.178;8.186;2023-05-23T13:14:14;11.60;;;6.50;;
21175;SDS011;10746;50.178;8.186;2023-05-23T13:16:41;8.88;;;5.95;;
21175;SDS011;10746;50.178;8.186;2023-05-23T13:19:10;11.73;;;5.97;;
21175;SDS011;10746;50.178;8.186;2023-05-23T13:21:37;10.23;;;6.70;;
21175;SDS011;10746;50.178;8.186;2023-05-23T13:24:04;12.75;;;6.07;;
21175;SDS011;10746;50.178;8.186;2023-05-23T13:26:32;16.02;;;6.03;;
21175;SDS011;10746;50.178;8.186;2023-05-23T13:28:59;10.57;;;6.00;;
21175;SDS011;10746;50.178;8.186;2023-05-23T13:31:26;12.52;;;8.43;;
21175;SDS011;10746;50.178;8.186;2023-05-23T13:33:53;13.10;;;7.97;;
21175;SDS011;10746;50.178;8.186;2023-05-23T13:36:21;18.83;;;9.00;;
21175;SDS011;10746;50.178;8.186;2023-05-23T13:38:49;18.05;;;9.82;;
21175;SDS011;10746;50.178;8.186;2023-05-23T13:41:16;17.27;;;9.90;;
21175;SDS011;10746;50.178;8.186;2023-05-23T13:43:42;16.00;;;10.25;;
21175;SDS011;10746;50.178;8.186;2023-05-23T13:46:10;20.60;;;10.73;;
21175;SDS011;10746;50.178;8.186;2023-05-23T13:48:37;19.13;;;11.90;;
21175;SDS011;10746;50.178;8.186;2023-05-23T13:51:04;19.52;;;11.05;;
21175;SDS011;10746;50.178;8.186;2023-05-23T13:53:32;20.65;;;12.40;;
21175;SDS011;10746;50.178;8.186;2023-05-23T13:55:59;22.27;;;12.68;;
21175;SDS011;10746;50.178;8.186;2023-05-23T13:58:27;22.27;;;13.70;;
21175;SDS011;10746;50.178;8.186;2023-05-23T14:00:54;28.00;;;14.10;;
21175;SDS011;10746;50.178;8.186;2023-05-23T14:03:20;25.05;;;13.52;;
21175;SDS011;10746;50.178;8.186;2023-05-23T14:05:48;25.10;;;15.57;;
21175;SDS011;10746;50.178;8.186;2023-05-23T14:08:15;25.52;;;14.27;;
21175;SDS011;10746;50.178;8.186;2023-05-23T14:10:43;25.88;;;14.15;;
21175;SDS011;10746;50.178;8.186;2023-05-23T14:13:10;28.67;;;13.90;;
21175;SDS011;10746;50.178;8.186;2023-05-23T14:15:37;25.73;;;13.85;;
21175;SDS011;10746;50.178;8.186;2023-05-23T14:18:05;23.10;;;13.35;;
21175;SDS011;10746;50.178;8.186;2023-05-23T14:20:32;24.73;;;13.02;;
21175;SDS011;10746;50.178;8.186;2023-05-23T14:22:59;23.80;;;12.20;;
21175;SDS011;10746;50.178;8.186;2023-05-23T14:25:26;22.17;;;11.32;;
21175;SDS011;10746;50.178;8.186;2023-05-23T14:27:54;22.60;;;12.07;;
21175;SDS011;10746;50.178;8.186;2023-05-23T14:30:21;20.30;;;10.07;;
21175;SDS011;10746;50.178;8.186;2023-05-23T14:32:47;16.00;;;9.50;;
21175;SDS011;10746;50.178;8.186;2023-05-23T14:35:14;14.02;;;8.52;;
21175;SDS011;10746;50.178;8.186;2023-05-23T14:37:41;11.98;;;7.22;;